createdAt,value
2022-12-12T00:01:49.833Z,99757.29
2022-12-12T00:04:21.686Z,99759.91
2022-12-12T00:06:53.639Z,99755.10
2022-12-12T00:09:25.611Z,99759.45
2022-12-12T00:11:57.520Z,99758.41
2022-12-12T00:14:29.885Z,99753.13
2022-12-12T00:17:01.745Z,99751.90
2022-12-12T00:19:33.799Z,99750.75
2022-12-12T00:22:05.604Z,99749.85
2022-12-12T00:24:37.478Z,99749.21
2022-12-12T00:27:09.472Z,99746.70
2022-12-12T00:29:41.364Z,99742.80
2022-12-12T00:32:13.153Z,99738.00
2022-12-12T00:34:45.074Z,99736.13
2022-12-12T00:37:17.014Z,99734.73
2022-12-12T00:39:48.979Z,99733.69
2022-12-12T00:42:20.984Z,99730.12
2022-12-12T00:44:52.867Z,99730.06
2022-12-12T00:47:24.744Z,99724.80
2022-12-12T00:49:56.672Z,99724.53
2022-12-12T00:52:28.524Z,99731.75
2022-12-12T00:55:00.487Z,99736.57
2022-12-12T00:57:32.297Z,99740.73
2022-12-12T01:00:11.778Z,99743.88
2022-12-12T01:02:44.322Z,99747.64
2022-12-12T01:05:17.335Z,99746.84
2022-12-12T01:07:49.251Z,99745.50
2022-12-12T01:10:26.628Z,99747.77
2022-12-12T01:12:58.418Z,99746.21
2022-12-12T01:15:30.723Z,99751.63
2022-12-12T01:18:02.602Z,99752.56
2022-12-12T01:20:35.155Z,99744.10
2022-12-12T01:23:07.043Z,99739.65
2022-12-12T01:25:38.957Z,99739.31
2022-12-12T01:28:11.172Z,99740.21
2022-12-12T01:30:43.319Z,99739.02
2022-12-12T01:33:15.188Z,99739.27
2022-12-12T01:35:47.032Z,99735.10
2022-12-12T01:38:19.183Z,99733.90
2022-12-12T01:40:51.257Z,99736.77
2022-12-12T01:43:24.555Z,99735.48
2022-12-12T01:46:33.518Z,99735.39
2022-12-12T01:49:14.300Z,99729.45
2022-12-12T01:51:47.612Z,99733.60
2022-12-12T01:54:25.373Z,99737.38
2022-12-12T01:56:59.728Z,99737.13
2022-12-12T01:59:34.977Z,99736.96
2022-12-12T02:02:07.430Z,99734.19
2022-12-12T02:04:39.898Z,99730.10
2022-12-12T02:07:11.794Z,99735.52
2022-12-12T02:09:43.775Z,99736.22
2022-12-12T02:12:16.810Z,99735.79
2022-12-12T02:14:51.749Z,99735.28
2022-12-12T02:17:36.157Z,99740.36
2022-12-12T02:20:40.927Z,99736.55
2022-12-12T02:23:52.780Z,99736.02
2022-12-12T02:26:46.653Z,99747.21
2022-12-12T02:29:49.612Z,99745.41
2022-12-12T02:32:32.474Z,99749.48
2022-12-12T02:35:13.000Z,99748.48
2022-12-12T02:37:53.168Z,99747.98
2022-12-12T02:40:39.799Z,99746.11
2022-12-12T02:43:19.833Z,99739.76
2022-12-12T02:45:57.893Z,99739.55
2022-12-12T02:48:36.579Z,99738.83
2022-12-12T02:51:11.997Z,99741.48
2022-12-12T02:53:43.788Z,99742.03
2022-12-12T02:56:45.409Z,99743.17
2022-12-12T02:59:22.600Z,99743.35
2022-12-12T03:02:18.567Z,99743.38
2022-12-12T03:05:23.844Z,99745.45
2022-12-12T03:08:04.647Z,99743.60
2022-12-12T03:10:50.413Z,99750.05
2022-12-12T03:13:36.787Z,99744.80
2022-12-12T03:16:20.363Z,99742.65
2022-12-12T03:18:59.871Z,99742.15
2022-12-12T03:21:40.983Z,99745.27
2022-12-12T03:24:13.904Z,99744.08
2022-12-12T03:26:50.334Z,99742.86
2022-12-12T03:29:26.866Z,99750.71
2022-12-12T03:32:04.543Z,99751.69
2022-12-12T03:34:40.737Z,99752.01
2022-12-12T03:37:19.045Z,99751.45
2022-12-12T03:39:54.524Z,99752.20
2022-12-12T03:42:31.191Z,99748.33
2022-12-12T03:45:06.748Z,99740.98
2022-12-12T03:47:47.083Z,99738.00
2022-12-12T03:50:25.618Z,99740.72
2022-12-12T03:53:02.384Z,99742.36
2022-12-12T03:55:42.126Z,99740.93
2022-12-12T03:58:20.121Z,99735.27
2022-12-12T04:00:55.852Z,99737.43
2022-12-12T04:03:34.138Z,99734.14
2022-12-12T04:06:30.681Z,99734.14
2022-12-12T04:09:25.605Z,99730.64
2022-12-12T04:12:25.320Z,99729.81
2022-12-12T04:15:14.123Z,99734.02
2022-12-12T04:17:56.032Z,99726.52
2022-12-12T04:20:51.484Z,99725.89
2022-12-12T04:23:33.477Z,99721.31
2022-12-12T04:26:29.186Z,99721.88
2022-12-12T04:29:09.043Z,99721.79
2022-12-12T04:31:46.509Z,99721.56
2022-12-12T04:34:27.691Z,99716.23
2022-12-12T04:36:58.028Z,99720.55
2022-12-12T04:39:31.651Z,99727.96
2022-12-12T04:42:05.987Z,99732.83
2022-12-12T04:44:41.378Z,99735.16
2022-12-12T04:47:15.618Z,99735.62
2022-12-12T04:49:51.281Z,99738.10
2022-12-12T04:52:25.321Z,99733.02
2022-12-12T04:55:04.713Z,99729.95
2022-12-12T04:57:40.101Z,99731.12
2022-12-12T05:00:20.841Z,99730.36
2022-12-12T05:03:00.687Z,99725.83
2022-12-12T05:05:37.482Z,99723.36
2022-12-12T05:08:13.457Z,99725.16
2022-12-12T05:10:48.300Z,99727.11
2022-12-12T05:13:23.256Z,99723.52
2022-12-12T05:15:59.732Z,99725.35
2022-12-12T05:18:31.788Z,99723.17
2022-12-12T05:21:03.612Z,99727.20
2022-12-12T05:23:35.519Z,99727.92
2022-12-12T05:26:11.259Z,99727.20
2022-12-12T05:28:43.036Z,99723.02
2022-12-12T05:31:14.850Z,99722.27
2022-12-12T05:33:46.937Z,99725.43
2022-12-12T05:36:19.806Z,99725.10
2022-12-12T05:38:51.679Z,99723.95
2022-12-12T05:41:23.620Z,99729.70
2022-12-12T05:43:55.444Z,99728.56
2022-12-12T05:46:27.438Z,99730.59
2022-12-12T05:48:59.340Z,99725.89
2022-12-12T05:51:31.263Z,99731.34
2022-12-12T05:54:03.325Z,99736.39
2022-12-12T05:56:35.228Z,99736.21
2022-12-12T05:59:07.084Z,99739.87
2022-12-12T06:01:38.973Z,99739.55
2022-12-12T06:04:10.934Z,99737.20
2022-12-12T06:06:43.010Z,99746.59
2022-12-12T06:09:15.845Z,99742.98
2022-12-12T06:11:47.712Z,99742.88
2022-12-12T06:14:19.550Z,99740.29
2022-12-12T06:16:51.514Z,99743.04
2022-12-12T06:19:23.783Z,99741.64
2022-12-12T06:21:55.621Z,99740.03
2022-12-12T06:24:27.440Z,99742.60
2022-12-12T06:26:59.317Z,99744.00
2022-12-12T06:29:31.118Z,99746.33
2022-12-12T06:32:02.969Z,99745.38
2022-12-12T06:34:34.788Z,99751.42
2022-12-12T06:37:12.899Z,99754.44
2022-12-12T06:39:48.886Z,99752.68
2022-12-12T06:42:20.765Z,99754.77
2022-12-12T06:45:11.699Z,99757.45
2022-12-12T06:47:44.228Z,99760.08
2022-12-12T06:50:19.086Z,99760.69
2022-12-12T06:52:55.988Z,99755.14
2022-12-12T06:55:27.733Z,99757.47
2022-12-12T06:57:59.425Z,99756.50
2022-12-12T07:00:31.157Z,99758.44
2022-12-12T07:03:04.263Z,99757.86
2022-12-12T07:05:36.146Z,99755.55
2022-12-12T07:08:08.093Z,99754.64
2022-12-12T07:10:39.894Z,99758.60
2022-12-12T07:13:11.717Z,99764.42
2022-12-12T07:15:46.817Z,99763.91
2022-12-12T07:18:19.398Z,99759.77
2022-12-12T07:20:51.157Z,99757.20
2022-12-12T07:23:23.070Z,99758.41
2022-12-12T07:25:54.802Z,99758.18
2022-12-12T07:28:27.098Z,99759.11
2022-12-12T07:30:58.813Z,99762.16
2022-12-12T07:33:41.086Z,99765.80
2022-12-12T07:36:16.639Z,99770.60
2022-12-12T07:38:48.364Z,99774.60
2022-12-12T07:41:21.638Z,99772.64
2022-12-12T07:43:53.491Z,99776.89
2022-12-12T07:46:26.381Z,99777.05
2022-12-12T07:48:58.260Z,99774.16
2022-12-12T07:51:31.083Z,99773.98
2022-12-12T07:54:03.280Z,99769.03
2022-12-12T07:56:35.264Z,99768.36
2022-12-12T07:59:07.144Z,99776.89
2022-12-12T08:01:39.274Z,99778.63
2022-12-12T08:04:11.191Z,99780.88
2022-12-12T08:06:43.003Z,99777.73
2022-12-12T08:09:14.744Z,99778.77
2022-12-12T08:11:46.488Z,99781.77
2022-12-12T08:14:18.695Z,99777.48
2022-12-12T08:16:50.545Z,99776.34
2022-12-12T08:19:22.310Z,99777.14
2022-12-12T08:21:54.138Z,99772.15
2022-12-12T08:24:25.886Z,99778.91
2022-12-12T08:26:57.580Z,99781.69
2022-12-12T08:29:29.306Z,99780.77
2022-12-12T08:32:01.021Z,99781.97
2022-12-12T08:34:32.701Z,99785.25
2022-12-12T08:37:04.578Z,99782.96
2022-12-12T08:39:37.012Z,99790.31
2022-12-12T08:42:08.702Z,99792.38
2022-12-12T08:44:40.635Z,99791.27
2022-12-12T08:47:12.348Z,99794.47
2022-12-12T08:49:44.264Z,99796.59
2022-12-12T08:52:15.917Z,99791.27
2022-12-12T08:54:47.644Z,99794.59
2022-12-12T08:57:25.605Z,99794.94
2022-12-12T08:59:57.804Z,99794.88
2022-12-12T09:02:31.011Z,99793.75
2022-12-12T09:05:02.854Z,99792.48
2022-12-12T09:07:34.744Z,99791.96
2022-12-12T09:10:16.364Z,99793.45
2022-12-12T09:12:55.028Z,99797.84
2022-12-12T09:15:26.728Z,99797.79
2022-12-12T09:17:58.329Z,99795.92
2022-12-12T09:20:30.706Z,99797.73
2022-12-12T09:23:02.359Z,99797.21
2022-12-12T09:25:34.058Z,99795.36
2022-12-12T09:28:05.888Z,99797.66
2022-12-12T09:30:37.608Z,99798.66
2022-12-12T09:33:09.712Z,99803.77
2022-12-12T09:35:42.012Z,99801.99
2022-12-12T09:38:14.789Z,99812.14
2022-12-12T09:40:54.676Z,99814.52
2022-12-12T09:43:29.807Z,99817.52
2022-12-12T09:46:03.803Z,99814.43
2022-12-12T09:48:42.370Z,99810.27
2022-12-12T09:51:15.058Z,99811.95
2022-12-12T09:53:51.555Z,99810.69
2022-12-12T09:56:32.731Z,99811.91
2022-12-12T09:59:07.849Z,99813.83
2022-12-12T10:01:49.105Z,99814.70
2022-12-12T10:04:25.065Z,99808.43
2022-12-12T10:07:02.635Z,99804.20
2022-12-12T10:09:43.656Z,99805.84
2022-12-12T10:12:18.099Z,99803.23
2022-12-12T10:14:53.697Z,99800.91
2022-12-12T10:17:32.622Z,99802.80
2022-12-12T10:20:15.869Z,99807.56
2022-12-12T10:22:57.656Z,99805.98
2022-12-12T10:25:40.386Z,99806.05
2022-12-12T10:28:15.504Z,99804.46
2022-12-12T10:30:59.956Z,99806.67
2022-12-12T10:33:44.125Z,99806.35
2022-12-12T10:36:28.315Z,99808.44
2022-12-12T10:39:16.229Z,99805.09
2022-12-12T10:41:52.975Z,99810.67
2022-12-12T10:44:47.469Z,99810.91
2022-12-12T10:47:19.643Z,99808.20
2022-12-12T10:49:52.601Z,99808.52
2022-12-12T10:52:25.167Z,99807.95
2022-12-12T10:55:00.121Z,99809.92
2022-12-12T10:57:35.265Z,99807.11
2022-12-12T11:00:27.503Z,99811.42
2022-12-12T11:03:01.502Z,99810.53
2022-12-12T11:05:37.957Z,99806.54
2022-12-12T11:08:22.478Z,99811.17
2022-12-12T11:11:07.590Z,99805.82
2022-12-12T11:13:46.410Z,99809.92
2022-12-12T11:16:20.159Z,99811.16
2022-12-12T11:19:05.143Z,99815.17
2022-12-12T11:21:39.746Z,99816.32
2022-12-12T11:24:16.989Z,99822.30
2022-12-12T11:26:52.996Z,99824.05
2022-12-12T11:29:33.030Z,99822.02
2022-12-12T11:32:05.287Z,99821.58
2022-12-12T11:34:41.104Z,99820.67
2022-12-12T11:37:18.260Z,99817.14
2022-12-12T11:39:53.378Z,99821.84
2022-12-12T11:42:29.245Z,99822.25
2022-12-12T11:45:04.897Z,99821.40
2022-12-12T11:47:42.517Z,99821.70
2022-12-12T11:50:23.652Z,99820.18
2022-12-12T11:52:59.256Z,99822.52
2022-12-12T11:55:45.600Z,99824.56
2022-12-12T11:58:23.907Z,99826.96
2022-12-12T12:01:04.606Z,99825.25
2022-12-12T12:03:58.640Z,99828.20
2022-12-12T12:06:43.523Z,99824.23
2022-12-12T12:09:23.886Z,99824.66
2022-12-12T12:12:05.649Z,99827.59
2022-12-12T12:14:56.814Z,99829.20
2022-12-12T12:17:41.652Z,99826.98
2022-12-12T12:20:28.454Z,99828.21
2022-12-12T12:23:11.383Z,99827.75
2022-12-12T12:25:50.914Z,99829.05
2022-12-12T12:28:50.434Z,99826.05
2022-12-12T12:31:32.161Z,99824.77
2022-12-12T12:34:16.865Z,99827.69
2022-12-12T12:37:07.122Z,99822.95
2022-12-12T12:39:59.894Z,99821.92
2022-12-12T12:42:49.462Z,99817.91
2022-12-12T12:45:29.377Z,99819.57
2022-12-12T12:48:10.397Z,99820.70
2022-12-12T12:50:46.497Z,99819.92
2022-12-12T12:53:31.105Z,99819.77
2022-12-12T12:56:10.026Z,99814.10
2022-12-12T12:58:47.146Z,99820.55
2022-12-12T13:01:24.523Z,99817.38
2022-12-12T13:04:03.091Z,99818.15
2022-12-12T13:06:44.445Z,99819.20
2022-12-12T13:09:25.206Z,99818.30
2022-12-12T13:12:02.608Z,99819.69
2022-12-12T13:14:43.687Z,99817.70
2022-12-12T13:17:20.181Z,99816.50
2022-12-12T13:19:55.009Z,99822.04
2022-12-12T13:22:38.034Z,99815.67
2022-12-12T13:25:17.775Z,99826.82
2022-12-12T13:27:53.830Z,99831.98
2022-12-12T13:30:38.062Z,99830.66
2022-12-12T13:33:22.987Z,99834.48
2022-12-12T13:35:59.514Z,99839.44
2022-12-12T13:38:34.331Z,99837.30
2022-12-12T13:41:08.266Z,99844.94
2022-12-12T13:43:49.255Z,99853.02
2022-12-12T13:46:42.374Z,99854.82
2022-12-12T13:49:31.897Z,99861.92
2022-12-12T13:52:31.547Z,99868.83
2022-12-12T13:55:24.219Z,99878.33
2022-12-12T13:58:29.669Z,99875.09
2022-12-12T14:01:32.744Z,99875.45
2022-12-12T14:04:05.043Z,99876.89
2022-12-12T14:06:37.294Z,99875.69
2022-12-12T14:09:27.731Z,99876.79
2022-12-12T14:12:21.407Z,99880.64
2022-12-12T14:15:00.786Z,99881.98
2022-12-12T14:17:40.082Z,99887.08
2022-12-12T14:20:32.444Z,99883.86
2022-12-12T14:23:27.963Z,99888.27
2022-12-12T14:26:00.988Z,99887.23
2022-12-12T14:28:34.773Z,99893.84
2022-12-12T14:31:15.045Z,99898.66
2022-12-12T14:34:03.320Z,99899.96
2022-12-12T14:37:04.896Z,99907.28
2022-12-12T14:39:58.601Z,99908.84
2022-12-12T14:43:20.438Z,99915.56
2022-12-12T14:45:34.352Z,99914.53
2022-12-12T14:48:22.113Z,99917.41
2022-12-12T14:50:58.481Z,99920.08
2022-12-12T14:53:32.914Z,99922.19
2022-12-12T14:56:10.158Z,99917.19
2022-12-12T14:58:46.094Z,99917.89
2022-12-12T15:01:28.004Z,99920.23
2022-12-12T15:04:00.678Z,99926.38
2022-12-12T15:06:35.365Z,99928.46
2022-12-12T15:09:29.441Z,99934.86
2022-12-12T15:12:15.425Z,99932.08
2022-12-12T15:14:57.101Z,99938.63
2022-12-12T15:17:31.144Z,99937.95
2022-12-12T15:20:14.695Z,99943.11
2022-12-12T15:22:54.509Z,99945.06
2022-12-12T15:25:28.491Z,99948.82
2022-12-12T15:28:00.775Z,99950.58
2022-12-12T15:30:37.161Z,99952.15
2022-12-12T15:33:17.503Z,99956.95
2022-12-12T15:35:57.893Z,99960.14
2022-12-12T15:38:33.857Z,99959.39
2022-12-12T15:41:13.229Z,99954.20
2022-12-12T15:43:45.578Z,99954.45
2022-12-12T15:46:18.128Z,99954.34
2022-12-12T15:48:52.468Z,99956.30
2022-12-12T15:51:29.774Z,99957.27
2022-12-12T15:54:08.575Z,99958.63
2022-12-12T15:56:40.400Z,99959.13
2022-12-12T15:59:23.928Z,99961.41
2022-12-12T16:01:55.693Z,99961.39
2022-12-12T16:04:27.858Z,99960.24
2022-12-12T16:07:22.470Z,99961.33
2022-12-12T16:10:25.642Z,99959.94
2022-12-12T16:13:02.836Z,99964.91
2022-12-12T16:15:39.316Z,99964.98
2022-12-12T16:18:19.136Z,99967.79
2022-12-12T16:20:53.182Z,99959.25
2022-12-12T16:23:31.230Z,99966.30
2022-12-12T16:26:02.871Z,99968.13
2022-12-12T16:28:34.817Z,99969.20
2022-12-12T16:31:15.459Z,99972.71
2022-12-12T16:33:47.255Z,99974.67
2022-12-12T16:36:19.092Z,99974.65
2022-12-12T16:38:50.772Z,99980.06
2022-12-12T16:41:23.028Z,99981.92
2022-12-12T16:43:54.950Z,99983.38
2022-12-12T16:46:27.759Z,99982.96
2022-12-12T16:49:04.601Z,99985.18
2022-12-12T16:51:40.935Z,99982.98
2022-12-12T16:54:17.967Z,99982.33
2022-12-12T16:56:52.684Z,99981.88
2022-12-12T16:59:24.582Z,99983.23
2022-12-12T17:01:56.642Z,99979.77
2022-12-12T17:04:28.971Z,99980.80
2022-12-12T17:07:00.676Z,99990.21
2022-12-12T17:09:32.358Z,99991.30
2022-12-12T17:12:04.107Z,99993.61
2022-12-12T17:14:37.599Z,99997.93
2022-12-12T17:17:09.371Z,99999.27
2022-12-12T17:19:41.205Z,99990.98
2022-12-12T17:22:13.201Z,99994.48
2022-12-12T17:24:45.063Z,99996.79
2022-12-12T17:27:16.722Z,100000.80
2022-12-12T17:29:48.544Z,100001.27
2022-12-12T17:32:24.371Z,100004.85
2022-12-12T17:34:56.469Z,100009.73
2022-12-12T17:37:28.292Z,100009.20
2022-12-12T17:40:00.167Z,100011.30
2022-12-12T17:42:33.701Z,100013.36
2022-12-12T17:45:06.358Z,100020.15
2022-12-12T17:47:38.189Z,100024.73
2022-12-12T17:50:15.284Z,100026.85
2022-12-12T17:52:47.089Z,100027.77
2022-12-12T17:55:51.507Z,100029.10
2022-12-12T17:58:10.711Z,100031.96
2022-12-12T18:00:42.585Z,100033.60
2022-12-12T18:03:14.227Z,100036.17
2022-12-12T18:05:46.095Z,100034.33
2022-12-12T18:08:18.411Z,100036.41
2022-12-12T18:10:50.068Z,100036.17
2022-12-12T18:13:21.741Z,100033.49
2022-12-12T18:15:57.886Z,100035.41
2022-12-12T18:18:30.003Z,100039.32
2022-12-12T18:21:06.941Z,100039.96
2022-12-12T18:23:38.979Z,100041.89
2022-12-12T18:26:17.235Z,100048.35
2022-12-12T18:28:59.402Z,100046.20
2022-12-12T18:31:32.487Z,100048.23
2022-12-12T18:34:04.961Z,100054.11
2022-12-12T18:36:36.724Z,100057.45
2022-12-12T18:39:09.573Z,100057.94
2022-12-12T18:41:41.242Z,100060.69
2022-12-12T18:44:15.037Z,100064.09
2022-12-12T18:46:46.899Z,100064.67
2022-12-12T18:49:18.950Z,100063.73
2022-12-12T18:51:50.715Z,100065.17
2022-12-12T18:54:22.526Z,100066.59
2022-12-12T18:56:54.365Z,100070.67
2022-12-12T18:59:26.054Z,100072.34
2022-12-12T19:01:57.810Z,100075.16
2022-12-12T19:04:29.626Z,100079.38
2022-12-12T19:07:01.284Z,100086.69
2022-12-12T19:09:33.200Z,100091.42
2022-12-12T19:12:05.432Z,100098.83
2022-12-12T19:14:52.729Z,100099.67
2022-12-12T19:17:29.140Z,100101.08
2022-12-12T19:20:01.053Z,100103.70
2022-12-12T19:22:44.975Z,100104.94
2022-12-12T19:25:18.730Z,100103.34
2022-12-12T19:27:50.525Z,100101.95
2022-12-12T19:30:22.739Z,100102.89
2022-12-12T19:32:54.616Z,100102.05
2022-12-12T19:35:26.262Z,100101.09
2022-12-12T19:37:58.201Z,100099.71
2022-12-12T19:40:30.322Z,100103.34
2022-12-12T19:43:02.018Z,100108.77
2022-12-12T19:45:33.745Z,100102.38
2022-12-12T19:48:05.700Z,100107.64
2022-12-12T19:50:39.998Z,100105.60
2022-12-12T19:53:12.212Z,100105.85
2022-12-12T19:55:52.142Z,100110.77
2022-12-12T19:58:23.844Z,100109.55
2022-12-12T20:00:55.554Z,100114.88
2022-12-12T20:03:27.536Z,100112.86
2022-12-12T20:06:03.276Z,100115.73
2022-12-12T20:08:36.143Z,100113.86
2022-12-12T20:11:10.209Z,100118.07
2022-12-12T20:13:42.541Z,100118.71
2022-12-12T20:16:17.328Z,100118.98
2022-12-12T20:18:50.280Z,100121.80
2022-12-12T20:21:59.361Z,100124.84
2022-12-12T20:24:17.701Z,100126.89
2022-12-12T20:26:49.560Z,100123.13
2022-12-12T20:29:21.740Z,100120.34
2022-12-12T20:31:53.584Z,100123.23
2022-12-12T20:34:25.531Z,100122.16
2022-12-12T20:36:57.591Z,100123.54
2022-12-12T20:39:29.600Z,100121.09
2022-12-12T20:42:01.277Z,100120.94
2022-12-12T20:44:33.020Z,100126.21
2022-12-12T20:47:06.626Z,100133.45
2022-12-12T20:49:38.603Z,100135.47
2022-12-12T20:52:10.314Z,100139.30
2022-12-12T20:54:42.057Z,100140.13
2022-12-12T20:57:13.796Z,100144.83
2022-12-12T20:59:45.494Z,100141.04
2022-12-12T21:02:17.560Z,100137.73
2022-12-12T21:04:50.091Z,100145.55
2022-12-12T21:07:21.787Z,100145.01
2022-12-12T21:09:53.427Z,100149.83
2022-12-12T21:12:25.180Z,100148.88
2022-12-12T21:15:01.130Z,100149.72
2022-12-12T21:17:34.507Z,100155.63
2022-12-12T21:20:18.142Z,100158.25
2022-12-12T21:22:58.146Z,100160.54
2022-12-12T21:25:29.817Z,100165.23
2022-12-12T21:28:01.549Z,100166.81
2022-12-12T21:30:33.215Z,100163.63
2022-12-12T21:33:04.844Z,100160.54
2022-12-12T21:35:38.066Z,100164.88
2022-12-12T21:38:09.690Z,100164.30
2022-12-12T21:40:41.477Z,100166.27
2022-12-12T21:43:13.155Z,100167.83
2022-12-12T21:45:44.877Z,100164.46
2022-12-12T21:48:16.571Z,100166.65
2022-12-12T21:50:48.349Z,100167.40
2022-12-12T21:53:35.017Z,100172.61
2022-12-12T21:56:11.971Z,100173.73
2022-12-12T21:58:44.946Z,100178.80
2022-12-12T22:01:18.899Z,100179.44
2022-12-12T22:03:51.168Z,100177.99
2022-12-12T22:06:25.200Z,100182.64
2022-12-12T22:08:58.849Z,100187.45
2022-12-12T22:11:39.902Z,100193.35
2022-12-12T22:14:19.923Z,100197.40
2022-12-12T22:16:51.839Z,100195.23
2022-12-12T22:19:23.504Z,100204.50
2022-12-12T22:21:55.146Z,100196.52
2022-12-12T22:24:27.255Z,100195.18
2022-12-12T22:26:58.994Z,100194.13
2022-12-12T22:29:30.768Z,100193.05
2022-12-12T22:32:02.471Z,100194.92
2022-12-12T22:34:34.072Z,100189.77
2022-12-12T22:37:05.972Z,100185.40
2022-12-12T22:39:37.609Z,100185.34
2022-12-12T22:42:09.550Z,100183.05
2022-12-12T22:44:41.242Z,100184.11
2022-12-12T22:47:12.986Z,100180.70
2022-12-12T22:49:44.702Z,100187.20
2022-12-12T22:52:16.728Z,100186.77
2022-12-12T22:54:48.412Z,100188.59
2022-12-12T22:57:20.292Z,100189.66
2022-12-12T22:59:51.937Z,100193.27
2022-12-12T23:02:25.255Z,100191.95
2022-12-12T23:04:57.512Z,100196.48
2022-12-12T23:07:29.353Z,100195.63
2022-12-12T23:10:02.454Z,100199.67
2022-12-12T23:12:34.496Z,100205.48
2022-12-12T23:15:07.158Z,100213.54
2022-12-12T23:17:39.016Z,100215.67
2022-12-12T23:20:14.933Z,100219.39
2022-12-12T23:22:46.577Z,100217.98
2022-12-12T23:25:18.561Z,100215.53
2022-12-12T23:27:50.291Z,100217.31
2022-12-12T23:30:29.004Z,100217.42
2022-12-12T23:33:00.754Z,100218.94
2022-12-12T23:35:32.380Z,100221.17
2022-12-12T23:38:04.139Z,100218.17
2022-12-12T23:40:36.505Z,100219.44
2022-12-12T23:43:08.724Z,100217.99
2022-12-12T23:45:41.023Z,100217.48
2022-12-12T23:48:12.710Z,100218.02
2022-12-12T23:50:44.417Z,100219.35
2022-12-12T23:53:16.316Z,100223.55
2022-12-12T23:55:47.997Z,100223.41
2022-12-12T23:58:19.738Z,100223.34
